sensor_id;sensor_type;location;lat;lon;timestamp;P1;durP1;ratioP1;P2;durP2;ratioP2
9222;SDS011;7557;51.698;3.942;2023-06-04T00:00:43;2.08;;;1.73;;
9222;SDS011;7557;51.698;3.942;2023-06-04T00:03:12;2.42;;;1.85;;
9222;SDS011;7557;51.698;3.942;2023-06-04T00:05:39;2.85;;;1.65;;
9222;SDS011;7557;51.698;3.942;2023-06-04T00:08:06;1.90;;;1.80;;
9222;SDS011;7557;51.698;3.942;2023-06-04T00:10:33;1.90;;;1.80;;
9222;SDS011;7557;51.698;3.942;2023-06-04T00:13:01;5.47;;;2.83;;
9222;SDS011;7557;51.698;3.942;2023-06-04T00:15:28;2.75;;;2.55;;
9222;SDS011;7557;51.698;3.942;2023-06-04T00:17:55;1.98;;;1.88;;
9222;SDS011;7557;51.698;3.942;2023-06-04T00:20:23;2.13;;;1.70;;
9222;SDS011;7557;51.698;3.942;2023-06-04T00:22:51;3.28;;;2.10;;
9222;SDS011;7557;51.698;3.942;2023-06-04T00:25:18;1.95;;;1.90;;
9222;SDS011;7557;51.698;3.942;2023-06-04T00:27:45;2.33;;;2.17;;
9222;SDS011;7557;51.698;3.942;2023-06-04T00:30:13;2.10;;;2.00;;
9222;SDS011;7557;51.698;3.942;2023-06-04T00:32:40;2.20;;;2.10;;
9222;SDS011;7557;51.698;3.942;2023-06-04T00:35:07;2.47;;;2.28;;
9222;SDS011;7557;51.698;3.942;2023-06-04T00:37:37;2.40;;;2.30;;
9222;SDS011;7557;51.698;3.942;2023-06-04T00:40:04;2.65;;;2.30;;
9222;SDS011;7557;51.698;3.942;2023-06-04T00:42:33;2.30;;;2.20;;
9222;SDS011;7557;51.698;3.942;2023-06-04T00:45:00;2.72;;;2.53;;
9222;SDS011;7557;51.698;3.942;2023-06-04T00:50:26;2.33;;;2.17;;
9222;SDS011;7557;51.698;3.942;2023-06-04T00:52:54;2.20;;;2.10;;
9222;SDS011;7557;51.698;3.942;2023-06-04T00:55:22;4.22;;;2.25;;
9222;SDS011;7557;51.698;3.942;2023-06-04T00:57:50;2.33;;;1.95;;
9222;SDS011;7557;51.698;3.942;2023-06-04T01:00:17;2.58;;;2.15;;
9222;SDS011;7557;51.698;3.942;2023-06-04T01:02:45;4.65;;;2.47;;
9222;SDS011;7557;51.698;3.942;2023-06-04T01:05:17;2.50;;;2.30;;
9222;SDS011;7557;51.698;3.942;2023-06-04T01:07:48;2.58;;;2.38;;
9222;SDS011;7557;51.698;3.942;2023-06-04T01:10:17;3.03;;;2.83;;
9222;SDS011;7557;51.698;3.942;2023-06-04T01:12:45;2.63;;;2.53;;
9222;SDS011;7557;51.698;3.942;2023-06-04T01:15:12;2.67;;;2.30;;
9222;SDS011;7557;51.698;3.942;2023-06-04T01:17:40;2.55;;;2.35;;
9222;SDS011;7557;51.698;3.942;2023-06-04T01:20:25;2.63;;;2.30;;
9222;SDS011;7557;51.698;3.942;2023-06-04T01:26:00;5.15;;;2.35;;
9222;SDS011;7557;51.698;3.942;2023-06-04T01:28:29;2.28;;;2.17;;
9222;SDS011;7557;51.698;3.942;2023-06-04T01:30:59;2.38;;;2.17;;
9222;SDS011;7557;51.698;3.942;2023-06-04T01:33:27;2.40;;;2.30;;
9222;SDS011;7557;51.698;3.942;2023-06-04T01:35:54;2.85;;;2.65;;
9222;SDS011;7557;51.698;3.942;2023-06-04T01:38:21;4.43;;;2.75;;
9222;SDS011;7557;51.698;3.942;2023-06-04T01:40:49;4.05;;;2.55;;
9222;SDS011;7557;51.698;3.942;2023-06-04T01:43:22;2.70;;;2.55;;
9222;SDS011;7557;51.698;3.942;2023-06-04T01:45:49;3.28;;;2.67;;
9222;SDS011;7557;51.698;3.942;2023-06-04T01:48:17;2.30;;;2.13;;
9222;SDS011;7557;51.698;3.942;2023-06-04T01:50:44;3.85;;;2.95;;
9222;SDS011;7557;51.698;3.942;2023-06-04T01:53:11;3.63;;;2.70;;
9222;SDS011;7557;51.698;3.942;2023-06-04T01:55:38;2.92;;;2.60;;
9222;SDS011;7557;51.698;3.942;2023-06-04T01:58:06;2.75;;;2.55;;
9222;SDS011;7557;51.698;3.942;2023-06-04T02:00:35;2.70;;;2.47;;
9222;SDS011;7557;51.698;3.942;2023-06-04T02:03:02;4.03;;;2.50;;
9222;SDS011;7557;51.698;3.942;2023-06-04T02:05:30;2.95;;;2.25;;
9222;SDS011;7557;51.698;3.942;2023-06-04T02:07:57;3.25;;;2.47;;
9222;SDS011;7557;51.698;3.942;2023-06-04T02:10:27;3.08;;;2.85;;
9222;SDS011;7557;51.698;3.942;2023-06-04T02:12:55;4.53;;;3.65;;
9222;SDS011;7557;51.698;3.942;2023-06-04T02:15:24;3.30;;;2.80;;
9222;SDS011;7557;51.698;3.942;2023-06-04T02:17:55;3.15;;;2.38;;
9222;SDS011;7557;51.698;3.942;2023-06-04T02:20:24;2.85;;;2.65;;
9222;SDS011;7557;51.698;3.942;2023-06-04T02:22:53;2.53;;;2.33;;
9222;SDS011;7557;51.698;3.942;2023-06-04T02:25:21;2.35;;;2.22;;
9222;SDS011;7557;51.698;3.942;2023-06-04T02:27:48;2.60;;;2.40;;
9222;SDS011;7557;51.698;3.942;2023-06-04T02:30:15;2.63;;;2.33;;
9222;SDS011;7557;51.698;3.942;2023-06-04T02:32:43;2.97;;;2.30;;
9222;SDS011;7557;51.698;3.942;2023-06-04T02:35:12;2.47;;;2.38;;
9222;SDS011;7557;51.698;3.942;2023-06-04T02:37:39;2.60;;;2.40;;
9222;SDS011;7557;51.698;3.942;2023-06-04T02:40:08;2.78;;;2.58;;
9222;SDS011;7557;51.698;3.942;2023-06-04T02:42:36;2.72;;;2.50;;
9222;SDS011;7557;51.698;3.942;2023-06-04T02:45:03;2.45;;;2.25;;
9222;SDS011;7557;51.698;3.942;2023-06-04T02:47:31;2.40;;;2.17;;
9222;SDS011;7557;51.698;3.942;2023-06-04T02:49:59;2.75;;;2.38;;
9222;SDS011;7557;51.698;3.942;2023-06-04T02:52:27;2.40;;;2.30;;
9222;SDS011;7557;51.698;3.942;2023-06-04T02:54:55;2.40;;;2.20;;
9222;SDS011;7557;51.698;3.942;2023-06-04T02:57:22;2.97;;;2.88;;
9222;SDS011;7557;51.698;3.942;2023-06-04T02:59:50;2.20;;;2.10;;
9222;SDS011;7557;51.698;3.942;2023-06-04T03:02:17;2.50;;;2.30;;
9222;SDS011;7557;51.698;3.942;2023-06-04T03:04:44;2.63;;;2.03;;
9222;SDS011;7557;51.698;3.942;2023-06-04T03:07:13;3.42;;;2.45;;
9222;SDS011;7557;51.698;3.942;2023-06-04T03:09:42;2.38;;;2.28;;
9222;SDS011;7557;51.698;3.942;2023-06-04T03:12:09;2.78;;;2.58;;
9222;SDS011;7557;51.698;3.942;2023-06-04T03:14:37;2.72;;;2.58;;
9222;SDS011;7557;51.698;3.942;2023-06-04T03:17:04;2.58;;;2.47;;
9222;SDS011;7557;51.698;3.942;2023-06-04T03:19:35;2.40;;;2.30;;
9222;SDS011;7557;51.698;3.942;2023-06-04T03:22:04;2.50;;;2.30;;
9222;SDS011;7557;51.698;3.942;2023-06-04T03:24:33;3.03;;;2.80;;
9222;SDS011;7557;51.698;3.942;2023-06-04T03:27:03;4.20;;;2.65;;
9222;SDS011;7557;51.698;3.942;2023-06-04T03:29:31;2.55;;;2.45;;
9222;SDS011;7557;51.698;3.942;2023-06-04T03:31:58;2.40;;;2.30;;
9222;SDS011;7557;51.698;3.942;2023-06-04T03:34:26;2.38;;;2.25;;
9222;SDS011;7557;51.698;3.942;2023-06-04T03:36:56;3.67;;;2.50;;
9222;SDS011;7557;51.698;3.942;2023-06-04T03:39:24;3.35;;;2.42;;
9222;SDS011;7557;51.698;3.942;2023-06-04T03:41:52;3.00;;;2.70;;
9222;SDS011;7557;51.698;3.942;2023-06-04T03:44:22;2.55;;;2.40;;
9222;SDS011;7557;51.698;3.942;2023-06-04T03:46:49;3.03;;;2.72;;
9222;SDS011;7557;51.698;3.942;2023-06-04T03:49:16;2.38;;;2.25;;
9222;SDS011;7557;51.698;3.942;2023-06-04T03:51:44;2.50;;;2.30;;
9222;SDS011;7557;51.698;3.942;2023-06-04T03:54:12;2.80;;;2.50;;
9222;SDS011;7557;51.698;3.942;2023-06-04T03:56:43;2.90;;;2.70;;
9222;SDS011;7557;51.698;3.942;2023-06-04T03:59:10;2.90;;;2.70;;
9222;SDS011;7557;51.698;3.942;2023-06-04T04:01:39;3.13;;;2.42;;
9222;SDS011;7557;51.698;3.942;2023-06-04T04:04:06;3.70;;;2.40;;
9222;SDS011;7557;51.698;3.942;2023-06-04T04:06:34;2.55;;;2.45;;
9222;SDS011;7557;51.698;3.942;2023-06-04T04:09:02;2.55;;;2.28;;
9222;SDS011;7557;51.698;3.942;2023-06-04T04:11:31;3.50;;;2.67;;
9222;SDS011;7557;51.698;3.942;2023-06-04T04:13:58;3.58;;;2.47;;
9222;SDS011;7557;51.698;3.942;2023-06-04T04:16:25;2.70;;;2.50;;
9222;SDS011;7557;51.698;3.942;2023-06-04T04:18:55;2.75;;;2.55;;
9222;SDS011;7557;51.698;3.942;2023-06-04T04:21:22;5.57;;;2.55;;
9222;SDS011;7557;51.698;3.942;2023-06-04T04:23:50;2.30;;;2.20;;
9222;SDS011;7557;51.698;3.942;2023-06-04T04:26:18;2.78;;;2.58;;
9222;SDS011;7557;51.698;3.942;2023-06-04T04:28:45;2.60;;;2.47;;
9222;SDS011;7557;51.698;3.942;2023-06-04T04:31:12;2.42;;;2.20;;
9222;SDS011;7557;51.698;3.942;2023-06-04T04:33:40;3.50;;;2.30;;
9222;SDS011;7557;51.698;3.942;2023-06-04T04:36:10;2.72;;;2.50;;
9222;SDS011;7557;51.698;3.942;2023-06-04T04:38:39;2.17;;;2.08;;
9222;SDS011;7557;51.698;3.942;2023-06-04T04:41:06;2.50;;;2.35;;
9222;SDS011;7557;51.698;3.942;2023-06-04T04:43:35;2.72;;;2.17;;
9222;SDS011;7557;51.698;3.942;2023-06-04T04:46:04;4.13;;;2.28;;
9222;SDS011;7557;51.698;3.942;2023-06-04T04:48:32;2.15;;;2.05;;
9222;SDS011;7557;51.698;3.942;2023-06-04T04:51:00;2.13;;;2.03;;
9222;SDS011;7557;51.698;3.942;2023-06-04T04:53:28;2.40;;;2.20;;
9222;SDS011;7557;51.698;3.942;2023-06-04T04:55:56;2.65;;;2.17;;
9222;SDS011;7557;51.698;3.942;2023-06-04T04:58:24;2.35;;;2.25;;
9222;SDS011;7557;51.698;3.942;2023-06-04T05:00:52;2.03;;;1.90;;
9222;SDS011;7557;51.698;3.942;2023-06-04T05:03:19;3.47;;;2.25;;
9222;SDS011;7557;51.698;3.942;2023-06-04T05:05:46;2.70;;;2.22;;
9222;SDS011;7557;51.698;3.942;2023-06-04T05:08:14;2.45;;;2.22;;
9222;SDS011;7557;51.698;3.942;2023-06-04T05:10:43;2.45;;;2.25;;
9222;SDS011;7557;51.698;3.942;2023-06-04T05:13:10;2.40;;;2.20;;
9222;SDS011;7557;51.698;3.942;2023-06-04T05:15:38;3.00;;;2.70;;
9222;SDS011;7557;51.698;3.942;2023-06-04T05:18:07;3.67;;;2.85;;
9222;SDS011;7557;51.698;3.942;2023-06-04T05:20:35;5.43;;;3.47;;
9222;SDS011;7557;51.698;3.942;2023-06-04T05:23:04;4.10;;;3.83;;
9222;SDS011;7557;51.698;3.942;2023-06-04T05:25:31;5.03;;;4.60;;
9222;SDS011;7557;51.698;3.942;2023-06-04T05:28:00;5.07;;;4.72;;
9222;SDS011;7557;51.698;3.942;2023-06-04T05:30:28;5.72;;;5.35;;
9222;SDS011;7557;51.698;3.942;2023-06-04T05:32:56;5.82;;;5.32;;
9222;SDS011;7557;51.698;3.942;2023-06-04T05:35:24;6.22;;;5.72;;
9222;SDS011;7557;51.698;3.942;2023-06-04T05:37:52;5.00;;;4.63;;
9222;SDS011;7557;51.698;3.942;2023-06-04T05:40:20;6.03;;;4.03;;
9222;SDS011;7557;51.698;3.942;2023-06-04T05:42:50;4.25;;;3.95;;
9222;SDS011;7557;51.698;3.942;2023-06-04T05:45:19;4.10;;;3.80;;
9222;SDS011;7557;51.698;3.942;2023-06-04T05:47:46;4.03;;;3.72;;
9222;SDS011;7557;51.698;3.942;2023-06-04T05:50:14;4.43;;;4.03;;
9222;SDS011;7557;51.698;3.942;2023-06-04T05:52:41;8.02;;;4.65;;
9222;SDS011;7557;51.698;3.942;2023-06-04T05:55:08;3.97;;;3.58;;
9222;SDS011;7557;51.698;3.942;2023-06-04T05:57:38;3.38;;;3.17;;
9222;SDS011;7557;51.698;3.942;2023-06-04T06:00:05;3.53;;;3.30;;
9222;SDS011;7557;51.698;3.942;2023-06-04T06:02:37;2.92;;;2.72;;
9222;SDS011;7557;51.698;3.942;2023-06-04T06:05:05;2.83;;;2.50;;
9222;SDS011;7557;51.698;3.942;2023-06-04T06:07:33;5.68;;;2.67;;
9222;SDS011;7557;51.698;3.942;2023-06-04T06:10:00;2.55;;;2.35;;
9222;SDS011;7557;51.698;3.942;2023-06-04T06:12:28;2.50;;;2.30;;
9222;SDS011;7557;51.698;3.942;2023-06-04T06:14:55;2.65;;;2.45;;
9222;SDS011;7557;51.698;3.942;2023-06-04T06:17:22;2.33;;;2.22;;
9222;SDS011;7557;51.698;3.942;2023-06-04T06:19:52;3.25;;;2.08;;
9222;SDS011;7557;51.698;3.942;2023-06-04T06:22:20;2.15;;;2.03;;
9222;SDS011;7557;51.698;3.942;2023-06-04T06:24:47;2.35;;;2.17;;
9222;SDS011;7557;51.698;3.942;2023-06-04T06:27:15;2.72;;;1.98;;
9222;SDS011;7557;51.698;3.942;2023-06-04T06:29:42;3.15;;;2.10;;
9222;SDS011;7557;51.698;3.942;2023-06-04T06:32:10;1.90;;;1.80;;
9222;SDS011;7557;51.698;3.942;2023-06-04T06:34:38;3.55;;;1.88;;
9222;SDS011;7557;51.698;3.942;2023-06-04T06:37:07;1.65;;;1.55;;
9222;SDS011;7557;51.698;3.942;2023-06-04T06:39:35;2.90;;;2.10;;
9222;SDS011;7557;51.698;3.942;2023-06-04T06:42:02;3.72;;;1.80;;
9222;SDS011;7557;51.698;3.942;2023-06-04T06:44:30;1.50;;;1.40;;
9222;SDS011;7557;51.698;3.942;2023-06-04T06:46:57;2.38;;;2.00;;
9222;SDS011;7557;51.698;3.942;2023-06-04T06:49:24;2.30;;;1.90;;
9222;SDS011;7557;51.698;3.942;2023-06-04T06:51:52;2.58;;;1.73;;
9222;SDS011;7557;51.698;3.942;2023-06-04T06:54:21;1.77;;;1.40;;
9222;SDS011;7557;51.698;3.942;2023-06-04T06:56:48;1.90;;;1.80;;
9222;SDS011;7557;51.698;3.942;2023-06-04T06:59:16;2.20;;;1.95;;
9222;SDS011;7557;51.698;3.942;2023-06-04T07:01:43;1.70;;;1.60;;
9222;SDS011;7557;51.698;3.942;2023-06-04T07:04:10;2.38;;;1.75;;
9222;SDS011;7557;51.698;3.942;2023-06-04T07:06:38;2.10;;;1.70;;
9222;SDS011;7557;51.698;3.942;2023-06-04T07:09:05;2.00;;;1.80;;
9222;SDS011;7557;51.698;3.942;2023-06-04T07:11:34;3.53;;;1.85;;
9222;SDS011;7557;51.698;3.942;2023-06-04T07:14:02;2.25;;;2.05;;
9222;SDS011;7557;51.698;3.942;2023-06-04T07:16:30;1.70;;;1.60;;
9222;SDS011;7557;51.698;3.942;2023-06-04T07:18:57;1.90;;;1.80;;
9222;SDS011;7557;51.698;3.942;2023-06-04T07:21:24;2.28;;;1.80;;
9222;SDS011;7557;51.698;3.942;2023-06-04T07:23:52;3.83;;;2.00;;
9222;SDS011;7557;51.698;3.942;2023-06-04T07:26:19;2.40;;;1.90;;
9222;SDS011;7557;51.698;3.942;2023-06-04T07:28:48;1.77;;;1.60;;
9222;SDS011;7557;51.698;3.942;2023-06-04T07:31:16;1.83;;;1.73;;
9222;SDS011;7557;51.698;3.942;2023-06-04T07:33:43;3.30;;;2.00;;
9222;SDS011;7557;51.698;3.942;2023-06-04T07:36:12;2.28;;;1.88;;
9222;SDS011;7557;51.698;3.942;2023-06-04T07:38:39;2.33;;;2.10;;
9222;SDS011;7557;51.698;3.942;2023-06-04T07:41:06;2.47;;;1.40;;
9222;SDS011;7557;51.698;3.942;2023-06-04T07:43:34;1.67;;;1.45;;
9222;SDS011;7557;51.698;3.942;2023-06-04T07:46:04;2.92;;;1.70;;
9222;SDS011;7557;51.698;3.942;2023-06-04T07:48:31;3.60;;;1.80;;
9222;SDS011;7557;51.698;3.942;2023-06-04T07:50:59;2.22;;;1.90;;
9222;SDS011;7557;51.698;3.942;2023-06-04T07:53:27;4.28;;;1.90;;
9222;SDS011;7557;51.698;3.942;2023-06-04T07:55:55;2.03;;;1.70;;
9222;SDS011;7557;51.698;3.942;2023-06-04T07:58:23;1.83;;;1.73;;
9222;SDS011;7557;51.698;3.942;2023-06-04T08:00:50;1.67;;;1.58;;
9222;SDS011;7557;51.698;3.942;2023-06-04T08:03:20;2.55;;;1.60;;
9222;SDS011;7557;51.698;3.942;2023-06-04T08:05:47;3.65;;;1.83;;
9222;SDS011;7557;51.698;3.942;2023-06-04T08:08:15;2.40;;;1.75;;
9222;SDS011;7557;51.698;3.942;2023-06-04T08:10:42;2.20;;;1.90;;
9222;SDS011;7557;51.698;3.942;2023-06-04T08:13:10;1.42;;;1.33;;
9222;SDS011;7557;51.698;3.942;2023-06-04T08:15:38;1.40;;;1.27;;
9222;SDS011;7557;51.698;3.942;2023-06-04T08:18:05;2.50;;;2.30;;
9222;SDS011;7557;51.698;3.942;2023-06-04T08:20:35;2.35;;;1.70;;
9222;SDS011;7557;51.698;3.942;2023-06-04T08:23:02;2.90;;;1.73;;
9222;SDS011;7557;51.698;3.942;2023-06-04T08:25:30;2.80;;;1.63;;
9222;SDS011;7557;51.698;3.942;2023-06-04T08:27:58;2.38;;;1.83;;
9222;SDS011;7557;51.698;3.942;2023-06-04T08:30:26;1.90;;;1.80;;
9222;SDS011;7557;51.698;3.942;2023-06-04T08:32:53;2.15;;;1.50;;
9222;SDS011;7557;51.698;3.942;2023-06-04T08:35:21;1.80;;;1.70;;
9222;SDS011;7557;51.698;3.942;2023-06-04T08:37:49;1.80;;;1.70;;
9222;SDS011;7557;51.698;3.942;2023-06-04T08:40:17;3.45;;;1.98;;
9222;SDS011;7557;51.698;3.942;2023-06-04T08:42:44;2.55;;;1.50;;
9222;SDS011;7557;51.698;3.942;2023-06-04T08:45:13;1.70;;;1.60;;
9222;SDS011;7557;51.698;3.942;2023-06-04T08:47:41;2.70;;;1.65;;
9222;SDS011;7557;51.698;3.942;2023-06-04T08:50:14;2.33;;;1.30;;
9222;SDS011;7557;51.698;3.942;2023-06-04T08:52:44;1.48;;;1.38;;
9222;SDS011;7557;51.698;3.942;2023-06-04T08:55:13;4.63;;;1.67;;
9222;SDS011;7557;51.698;3.942;2023-06-04T08:57:41;4.35;;;1.65;;
9222;SDS011;7557;51.698;3.942;2023-06-04T09:00:09;3.20;;;1.67;;
9222;SDS011;7557;51.698;3.942;2023-06-04T09:02:38;2.05;;;1.70;;
9222;SDS011;7557;51.698;3.942;2023-06-04T09:05:06;1.45;;;1.33;;
9222;SDS011;7557;51.698;3.942;2023-06-04T09:07:35;1.95;;;1.60;;
9222;SDS011;7557;51.698;3.942;2023-06-04T09:10:07;3.70;;;1.67;;
9222;SDS011;7557;51.698;3.942;2023-06-04T09:12:39;1.80;;;1.70;;
9222;SDS011;7557;51.698;3.942;2023-06-04T09:15:09;1.98;;;1.55;;
9222;SDS011;7557;51.698;3.942;2023-06-04T09:17:37;2.35;;;1.50;;
9222;SDS011;7557;51.698;3.942;2023-06-04T09:20:05;1.67;;;1.58;;
9222;SDS011;7557;51.698;3.942;2023-06-04T09:22:34;2.28;;;1.35;;
9222;SDS011;7557;51.698;3.942;2023-06-04T09:25:03;1.55;;;1.45;;
9222;SDS011;7557;51.698;3.942;2023-06-04T09:27:37;3.17;;;1.60;;
9222;SDS011;7557;51.698;3.942;2023-06-04T09:30:07;1.10;;;1.10;;
9222;SDS011;7557;51.698;3.942;2023-06-04T09:32:35;2.15;;;1.30;;
9222;SDS011;7557;51.698;3.942;2023-06-04T09:35:09;2.05;;;1.60;;
9222;SDS011;7557;51.698;3.942;2023-06-04T09:37:38;2.67;;;1.45;;
9222;SDS011;7557;51.698;3.942;2023-06-04T09:40:06;2.03;;;1.50;;
9222;SDS011;7557;51.698;3.942;2023-06-04T09:42:45;2.65;;;1.33;;
9222;SDS011;7557;51.698;3.942;2023-06-04T09:45:26;3.00;;;1.70;;
9222;SDS011;7557;51.698;3.942;2023-06-04T09:47:54;1.65;;;1.23;;
9222;SDS011;7557;51.698;3.942;2023-06-04T09:50:24;2.75;;;1.65;;
9222;SDS011;7557;51.698;3.942;2023-06-04T09:52:52;1.85;;;1.30;;
9222;SDS011;7557;51.698;3.942;2023-06-04T09:55:20;2.40;;;1.75;;
9222;SDS011;7557;51.698;3.942;2023-06-04T09:57:50;1.73;;;1.60;;
9222;SDS011;7557;51.698;3.942;2023-06-04T10:00:18;3.25;;;1.55;;
9222;SDS011;7557;51.698;3.942;2023-06-04T10:02:48;2.30;;;1.60;;
9222;SDS011;7557;51.698;3.942;2023-06-04T10:05:16;3.92;;;1.70;;
9222;SDS011;7557;51.698;3.942;2023-06-04T10:07:46;2.25;;;1.80;;
9222;SDS011;7557;51.698;3.942;2023-06-04T10:10:19;3.17;;;1.48;;
9222;SDS011;7557;51.698;3.942;2023-06-04T10:12:53;2.00;;;1.80;;
9222;SDS011;7557;51.698;3.942;2023-06-04T10:15:26;1.60;;;1.50;;
9222;SDS011;7557;51.698;3.942;2023-06-04T10:17:53;1.88;;;1.77;;
9222;SDS011;7557;51.698;3.942;2023-06-04T10:20:22;3.88;;;1.95;;
9222;SDS011;7557;51.698;3.942;2023-06-04T10:22:50;1.65;;;1.50;;
9222;SDS011;7557;51.698;3.942;2023-06-04T10:25:18;2.00;;;1.75;;
9222;SDS011;7557;51.698;3.942;2023-06-04T10:27:51;1.85;;;1.45;;
9222;SDS011;7557;51.698;3.942;2023-06-04T10:30:19;2.03;;;1.83;;
9222;SDS011;7557;51.698;3.942;2023-06-04T10:32:46;2.03;;;1.83;;
9222;SDS011;7557;51.698;3.942;2023-06-04T10:35:14;2.63;;;1.80;;
9222;SDS011;7557;51.698;3.942;2023-06-04T10:37:42;2.35;;;1.60;;
9222;SDS011;7557;51.698;3.942;2023-06-04T10:40:09;2.00;;;1.90;;
9222;SDS011;7557;51.698;3.942;2023-06-04T10:42:37;4.13;;;1.80;;
9222;SDS011;7557;51.698;3.942;2023-06-04T10:45:08;3.88;;;2.30;;
9222;SDS011;7557;51.698;3.942;2023-06-04T10:47:37;3.67;;;2.13;;
9222;SDS011;7557;51.698;3.942;2023-06-04T10:50:07;5.03;;;2.53;;
9222;SDS011;7557;51.698;3.942;2023-06-04T10:52:35;4.10;;;2.88;;
9222;SDS011;7557;51.698;3.942;2023-06-04T10:55:03;3.58;;;2.33;;
9222;SDS011;7557;51.698;3.942;2023-06-04T10:57:32;4.35;;;2.78;;
9222;SDS011;7557;51.698;3.942;2023-06-04T11:00:00;3.80;;;2.45;;
9222;SDS011;7557;51.698;3.942;2023-06-04T11:02:32;3.58;;;2.40;;
9222;SDS011;7557;51.698;3.942;2023-06-04T11:05:00;4.63;;;2.80;;
9222;SDS011;7557;51.698;3.942;2023-06-04T11:07:28;8.80;;;2.60;;
9222;SDS011;7557;51.698;3.942;2023-06-04T11:10:07;2.92;;;2.42;;
9222;SDS011;7557;51.698;3.942;2023-06-04T11:12:40;2.75;;;2.28;;
9222;SDS011;7557;51.698;3.942;2023-06-04T11:15:09;4.43;;;2.47;;
9222;SDS011;7557;51.698;3.942;2023-06-04T11:17:38;3.63;;;2.63;;
9222;SDS011;7557;51.698;3.942;2023-06-04T11:20:16;5.15;;;2.60;;
9222;SDS011;7557;51.698;3.942;2023-06-04T11:22:49;6.03;;;2.40;;
9222;SDS011;7557;51.698;3.942;2023-06-04T11:25:21;2.72;;;2.50;;
9222;SDS011;7557;51.698;3.942;2023-06-04T11:27:48;4.78;;;2.40;;
9222;SDS011;7557;51.698;3.942;2023-06-04T11:30:16;4.70;;;2.28;;
9222;SDS011;7557;51.698;3.942;2023-06-04T11:32:46;8.15;;;3.05;;
9222;SDS011;7557;51.698;3.942;2023-06-04T11:35:13;4.00;;;3.20;;
9222;SDS011;7557;51.698;3.942;2023-06-04T11:37:41;8.82;;;3.47;;
9222;SDS011;7557;51.698;3.942;2023-06-04T11:40:15;5.57;;;2.97;;
9222;SDS011;7557;51.698;3.942;2023-06-04T11:42:43;3.90;;;2.80;;
9222;SDS011;7557;51.698;3.942;2023-06-04T11:45:12;2.60;;;2.40;;
9222;SDS011;7557;51.698;3.942;2023-06-04T11:47:41;4.18;;;2.50;;
9222;SDS011;7557;51.698;3.942;2023-06-04T11:50:13;6.93;;;3.10;;
9222;SDS011;7557;51.698;3.942;2023-06-04T11:52:41;3.00;;;2.42;;
9222;SDS011;7557;51.698;3.942;2023-06-04T11:55:10;3.15;;;2.58;;
9222;SDS011;7557;51.698;3.942;2023-06-04T11:57:38;3.47;;;2.75;;
9222;SDS011;7557;51.698;3.942;2023-06-04T12:00:06;9.30;;;3.20;;
9222;SDS011;7557;51.698;3.942;2023-06-04T12:02:38;5.47;;;2.42;;
9222;SDS011;7557;51.698;3.942;2023-06-04T12:05:18;5.63;;;2.85;;
9222;SDS011;7557;51.698;3.942;2023-06-04T12:07:48;4.93;;;2.65;;
9222;SDS011;7557;51.698;3.942;2023-06-04T12:10:16;3.95;;;2.72;;
9222;SDS011;7557;51.698;3.942;2023-06-04T12:12:44;4.88;;;2.88;;
9222;SDS011;7557;51.698;3.942;2023-06-04T12:15:12;4.47;;;2.72;;
9222;SDS011;7557;51.698;3.942;2023-06-04T12:17:49;5.20;;;2.92;;
9222;SDS011;7557;51.698;3.942;2023-06-04T12:20:29;3.95;;;2.67;;
9222;SDS011;7557;51.698;3.942;2023-06-04T12:23:00;3.08;;;2.55;;
9222;SDS011;7557;51.698;3.942;2023-06-04T12:25:28;3.97;;;2.47;;
9222;SDS011;7557;51.698;3.942;2023-06-04T12:27:56;4.50;;;2.75;;
9222;SDS011;7557;51.698;3.942;2023-06-04T12:30:34;4.20;;;2.80;;
9222;SDS011;7557;51.698;3.942;2023-06-04T12:33:03;3.33;;;2.50;;
9222;SDS011;7557;51.698;3.942;2023-06-04T12:35:34;5.43;;;2.20;;
9222;SDS011;7557;51.698;3.942;2023-06-04T12:38:03;3.92;;;2.63;;
9222;SDS011;7557;51.698;3.942;2023-06-04T12:40:34;3.20;;;2.30;;
9222;SDS011;7557;51.698;3.942;2023-06-04T12:43:01;6.43;;;2.85;;
9222;SDS011;7557;51.698;3.942;2023-06-04T12:45:29;3.47;;;2.67;;
9222;SDS011;7557;51.698;3.942;2023-06-04T12:47:57;5.38;;;2.45;;
9222;SDS011;7557;51.698;3.942;2023-06-04T12:50:24;3.45;;;2.60;;
9222;SDS011;7557;51.698;3.942;2023-06-04T12:52:53;3.97;;;2.85;;
9222;SDS011;7557;51.698;3.942;2023-06-04T12:55:21;4.15;;;2.22;;
9222;SDS011;7557;51.698;3.942;2023-06-04T12:57:48;5.63;;;2.97;;
9222;SDS011;7557;51.698;3.942;2023-06-04T13:00:15;4.45;;;2.80;;
9222;SDS011;7557;51.698;3.942;2023-06-04T13:02:43;5.20;;;2.80;;
9222;SDS011;7557;51.698;3.942;2023-06-04T13:05:11;2.45;;;2.25;;
9222;SDS011;7557;51.698;3.942;2023-06-04T13:07:39;2.75;;;2.22;;
9222;SDS011;7557;51.698;3.942;2023-06-04T13:10:08;5.80;;;2.70;;
9222;SDS011;7557;51.698;3.942;2023-06-04T13:12:36;9.75;;;2.72;;
9222;SDS011;7557;51.698;3.942;2023-06-04T13:15:04;4.38;;;2.45;;
9222;SDS011;7557;51.698;3.942;2023-06-04T13:17:32;6.13;;;3.10;;
9222;SDS011;7557;51.698;3.942;2023-06-04T13:19:59;2.20;;;2.10;;
9222;SDS011;7557;51.698;3.942;2023-06-04T13:22:28;3.92;;;2.67;;
9222;SDS011;7557;51.698;3.942;2023-06-04T13:24:56;5.82;;;2.65;;
9222;SDS011;7557;51.698;3.942;2023-06-04T13:27:25;8.38;;;2.95;;
9222;SDS011;7557;51.698;3.942;2023-06-04T13:29:52;3.85;;;2.28;;
9222;SDS011;7557;51.698;3.942;2023-06-04T13:32:20;5.15;;;2.55;;
9222;SDS011;7557;51.698;3.942;2023-06-04T13:34:48;8.23;;;2.40;;
9222;SDS011;7557;51.698;3.942;2023-06-04T13:37:15;4.75;;;2.53;;
9222;SDS011;7557;51.698;3.942;2023-06-04T13:39:43;6.35;;;2.92;;
9222;SDS011;7557;51.698;3.942;2023-06-04T13:42:10;3.70;;;2.38;;
9222;SDS011;7557;51.698;3.942;2023-06-04T13:44:39;5.18;;;2.67;;
9222;SDS011;7557;51.698;3.942;2023-06-04T13:47:07;5.38;;;2.47;;
9222;SDS011;7557;51.698;3.942;2023-06-04T13:49:34;5.65;;;3.47;;
9222;SDS011;7557;51.698;3.942;2023-06-04T13:52:01;2.53;;;2.30;;
9222;SDS011;7557;51.698;3.942;2023-06-04T13:54:29;8.48;;;3.08;;
9222;SDS011;7557;51.698;3.942;2023-06-04T13:57:01;5.03;;;2.50;;
9222;SDS011;7557;51.698;3.942;2023-06-04T13:59:29;3.25;;;2.38;;
9222;SDS011;7557;51.698;3.942;2023-06-04T14:01:59;3.03;;;2.47;;
9222;SDS011;7557;51.698;3.942;2023-06-04T14:04:27;12.10;;;3.33;;
9222;SDS011;7557;51.698;3.942;2023-06-04T14:06:54;5.25;;;2.45;;
9222;SDS011;7557;51.698;3.942;2023-06-04T14:09:23;4.00;;;2.30;;
9222;SDS011;7557;51.698;3.942;2023-06-04T14:11:50;4.00;;;2.30;;
9222;SDS011;7557;51.698;3.942;2023-06-04T14:14:17;5.65;;;2.88;;
9222;SDS011;7557;51.698;3.942;2023-06-04T14:16:46;4.35;;;2.22;;
9222;SDS011;7557;51.698;3.942;2023-06-04T14:19:15;4.65;;;2.30;;
9222;SDS011;7557;51.698;3.942;2023-06-04T14:21:43;2.95;;;2.35;;
9222;SDS011;7557;51.698;3.942;2023-06-04T14:24:11;6.82;;;3.25;;
9222;SDS011;7557;51.698;3.942;2023-06-04T14:26:38;3.83;;;2.70;;
9222;SDS011;7557;51.698;3.942;2023-06-04T14:29:06;4.45;;;2.53;;
9222;SDS011;7557;51.698;3.942;2023-06-04T14:31:34;4.07;;;2.60;;
9222;SDS011;7557;51.698;3.942;2023-06-04T14:34:01;2.83;;;2.05;;
9222;SDS011;7557;51.698;3.942;2023-06-04T14:36:31;7.32;;;2.60;;
9222;SDS011;7557;51.698;3.942;2023-06-04T14:38:59;5.93;;;2.95;;
9222;SDS011;7557;51.698;3.942;2023-06-04T14:41:26;6.28;;;2.88;;
9222;SDS011;7557;51.698;3.942;2023-06-04T14:43:54;3.90;;;2.45;;
9222;SDS011;7557;51.698;3.942;2023-06-04T14:46:21;2.85;;;2.22;;
9222;SDS011;7557;51.698;3.942;2023-06-04T14:48:49;4.25;;;2.47;;
9222;SDS011;7557;51.698;3.942;2023-06-04T14:51:17;6.43;;;2.67;;
9222;SDS011;7557;51.698;3.942;2023-06-04T14:53:46;6.38;;;2.28;;
9222;SDS011;7557;51.698;3.942;2023-06-04T14:56:13;4.65;;;2.72;;
9222;SDS011;7557;51.698;3.942;2023-06-04T14:58:41;2.50;;;2.25;;
9222;SDS011;7557;51.698;3.942;2023-06-04T15:01:08;3.65;;;2.53;;
9222;SDS011;7557;51.698;3.942;2023-06-04T15:03:38;3.38;;;2.42;;
9222;SDS011;7557;51.698;3.942;2023-06-04T15:06:06;3.67;;;2.25;;
9222;SDS011;7557;51.698;3.942;2023-06-04T15:08:34;3.20;;;2.75;;
9222;SDS011;7557;51.698;3.942;2023-06-04T15:11:03;6.28;;;2.53;;
9222;SDS011;7557;51.698;3.942;2023-06-04T15:13:30;4.78;;;2.55;;
9222;SDS011;7557;51.698;3.942;2023-06-04T15:15:59;5.82;;;2.50;;
9222;SDS011;7557;51.698;3.942;2023-06-04T15:18:27;5.95;;;2.13;;
9222;SDS011;7557;51.698;3.942;2023-06-04T15:20:54;3.67;;;2.53;;
9222;SDS011;7557;51.698;3.942;2023-06-04T15:23:21;5.05;;;2.33;;
9222;SDS011;7557;51.698;3.942;2023-06-04T15:25:49;2.63;;;1.90;;
9222;SDS011;7557;51.698;3.942;2023-06-04T15:28:18;3.25;;;2.20;;